createdAt,value
2017-08-20T00:02:23.118Z,13.70
2017-08-20T00:04:49.296Z,13.60
2017-08-20T00:07:15.480Z,13.70
2017-08-20T00:09:42.439Z,13.50
2017-08-20T00:12:08.646Z,13.50
2017-08-20T00:14:34.861Z,13.40
2017-08-20T00:17:01.121Z,13.30
2017-08-20T00:19:27.529Z,13.20
2017-08-20T00:21:53.764Z,13.20
2017-08-20T00:24:20.122Z,13.20
2017-08-20T00:26:46.323Z,13.20
2017-08-20T00:29:12.606Z,13.10
2017-08-20T00:31:39.597Z,13.10
2017-08-20T00:34:05.879Z,13.20
2017-08-20T00:36:32.116Z,13.10
2017-08-20T00:38:58.319Z,13.20
2017-08-20T00:41:25.427Z,13.20
2017-08-20T00:43:51.770Z,13.10
2017-08-20T00:46:18.070Z,13.20
2017-08-20T00:48:47.761Z,13.10
2017-08-20T00:51:14.059Z,13.00
2017-08-20T00:53:40.317Z,13.00
2017-08-20T00:56:06.605Z,12.90
2017-08-20T00:58:32.848Z,12.90
2017-08-20T01:00:59.055Z,13.00
2017-08-20T01:03:25.251Z,13.00
2017-08-20T01:05:51.416Z,13.00
2017-08-20T01:08:17.604Z,13.00
2017-08-20T01:10:43.823Z,13.00
2017-08-20T01:13:10.008Z,13.10
2017-08-20T01:15:36.175Z,13.00
2017-08-20T01:18:05.913Z,13.00
2017-08-20T01:20:32.439Z,13.00
2017-08-20T01:22:58.728Z,13.10
2017-08-20T01:25:25.020Z,13.20
2017-08-20T01:27:51.419Z,13.20
2017-08-20T01:30:17.937Z,13.20
2017-08-20T01:32:44.115Z,13.20
2017-08-20T01:35:10.324Z,13.30
2017-08-20T01:37:36.647Z,13.30
2017-08-20T01:40:02.884Z,13.30
2017-08-20T01:42:29.074Z,13.30
2017-08-20T01:44:55.310Z,13.10
2017-08-20T01:47:21.592Z,13.10
2017-08-20T01:49:47.908Z,13.10
2017-08-20T01:52:14.072Z,13.10
2017-08-20T01:54:40.386Z,13.00
2017-08-20T01:57:07.303Z,13.10
2017-08-20T01:59:33.463Z,13.10
2017-08-20T02:02:01.132Z,13.10
2017-08-20T02:04:27.421Z,13.10
2017-08-20T02:06:53.572Z,13.10
2017-08-20T02:09:19.775Z,13.20
2017-08-20T02:11:46.253Z,13.30
2017-08-20T02:14:13.639Z,13.30
2017-08-20T02:16:39.878Z,13.30
2017-08-20T02:19:06.835Z,13.30
2017-08-20T02:21:33.766Z,13.30
2017-08-20T02:24:00.692Z,13.20
2017-08-20T02:26:28.998Z,13.20
2017-08-20T02:28:55.263Z,13.20
2017-08-20T02:31:21.468Z,13.10
2017-08-20T02:33:47.770Z,13.10
2017-08-20T02:36:14.060Z,13.10
2017-08-20T02:38:40.321Z,13.00
2017-08-20T02:41:07.233Z,13.00
2017-08-20T02:43:33.387Z,13.00
2017-08-20T02:45:59.664Z,13.10
2017-08-20T02:48:25.888Z,13.10
2017-08-20T02:50:52.099Z,13.20
2017-08-20T02:53:18.291Z,13.20
2017-08-20T02:55:44.500Z,13.20
2017-08-20T02:58:10.675Z,13.20
2017-08-20T03:00:36.874Z,13.20
2017-08-20T03:03:03.054Z,13.10
2017-08-20T03:05:29.281Z,13.10
2017-08-20T03:07:55.523Z,13.00
2017-08-20T03:10:21.723Z,13.00
2017-08-20T03:12:48.388Z,13.00
2017-08-20T03:15:14.624Z,13.10
2017-08-20T03:17:40.932Z,13.00
2017-08-20T03:20:07.211Z,13.00
2017-08-20T03:22:33.386Z,12.90
2017-08-20T03:24:59.627Z,12.90
2017-08-20T03:27:25.808Z,12.90
2017-08-20T03:29:52.120Z,13.00
2017-08-20T03:32:19.071Z,13.00
2017-08-20T03:34:45.240Z,12.90
2017-08-20T03:37:11.463Z,13.00
2017-08-20T03:39:37.675Z,12.90
2017-08-20T03:42:03.896Z,12.80
2017-08-20T03:44:30.078Z,12.80
2017-08-20T03:46:56.293Z,12.70
2017-08-20T03:49:22.494Z,12.60
2017-08-20T03:51:48.678Z,12.70
2017-08-20T03:54:15.575Z,12.80
2017-08-20T03:56:41.755Z,12.80
2017-08-20T03:59:07.952Z,12.80
2017-08-20T04:01:34.120Z,12.80
2017-08-20T04:04:00.291Z,12.80
2017-08-20T04:06:26.515Z,12.80
2017-08-20T04:08:53.146Z,12.80
2017-08-20T04:11:19.703Z,12.80
2017-08-20T04:13:45.887Z,12.70
2017-08-20T04:16:12.142Z,12.70
2017-08-20T04:18:38.375Z,12.70
2017-08-20T04:21:05.027Z,12.70
2017-08-20T04:23:31.360Z,12.60
2017-08-20T04:25:57.690Z,12.60
2017-08-20T04:28:24.620Z,12.50
2017-08-20T04:30:50.871Z,12.50
2017-08-20T04:33:17.041Z,12.40
2017-08-20T04:35:43.289Z,12.40
2017-08-20T04:38:09.473Z,12.40
2017-08-20T04:40:35.689Z,12.30
2017-08-20T04:43:01.940Z,12.00
2017-08-20T04:45:28.121Z,12.00
2017-08-20T04:47:55.072Z,12.20
2017-08-20T04:50:21.267Z,12.10
2017-08-20T04:52:47.445Z,12.20
2017-08-20T04:55:13.624Z,12.30
2017-08-20T04:57:39.783Z,12.30
2017-08-20T05:00:05.938Z,12.40
2017-08-20T05:02:32.159Z,12.50
2017-08-20T05:04:58.388Z,12.50
2017-08-20T05:07:24.581Z,12.50
2017-08-20T05:09:50.743Z,12.60
2017-08-20T05:12:16.916Z,12.60
2017-08-20T05:14:43.076Z,12.70
2017-08-20T05:17:10.012Z,12.60
2017-08-20T05:19:36.224Z,12.70
2017-08-20T05:22:02.404Z,12.70
2017-08-20T05:24:28.579Z,12.80
2017-08-20T05:26:54.785Z,12.90
2017-08-20T05:29:21.025Z,12.90
2017-08-20T05:31:47.684Z,12.90
2017-08-20T05:34:14.583Z,13.00
2017-08-20T05:36:40.755Z,13.10
2017-08-20T05:39:06.981Z,13.10
2017-08-20T05:41:33.280Z,13.10
2017-08-20T05:43:59.536Z,13.20
2017-08-20T05:46:29.823Z,13.20
2017-08-20T05:48:56.001Z,13.30
2017-08-20T05:51:47.597Z,13.30
2017-08-20T05:54:14.041Z,13.40
2017-08-20T05:56:40.224Z,13.40
2017-08-20T05:59:06.451Z,13.40
2017-08-20T06:01:32.780Z,13.40
2017-08-20T06:03:59.112Z,13.50
2017-08-20T06:06:25.275Z,13.50
2017-08-20T06:08:51.517Z,13.40
2017-08-20T06:11:17.994Z,13.50
2017-08-20T06:13:44.288Z,13.50
2017-08-20T06:16:10.436Z,13.50
2017-08-20T06:18:36.707Z,13.60
2017-08-20T06:21:03.523Z,13.60
2017-08-20T06:23:29.786Z,13.70
2017-08-20T06:25:55.956Z,13.70
2017-08-20T06:28:22.144Z,13.70
2017-08-20T06:30:49.038Z,13.80
2017-08-20T06:33:18.808Z,13.80
2017-08-20T06:35:45.021Z,13.80
2017-08-20T06:38:11.279Z,13.90
2017-08-20T06:40:37.477Z,14.00
2017-08-20T06:43:03.660Z,13.90
2017-08-20T06:45:29.837Z,13.90
2017-08-20T06:47:56.744Z,13.90
2017-08-20T06:50:22.944Z,13.90
2017-08-20T06:52:49.091Z,14.00
2017-08-20T06:55:16.046Z,14.00
2017-08-20T06:57:42.286Z,14.00
2017-08-20T07:00:08.542Z,14.10
2017-08-20T07:02:35.485Z,14.10
2017-08-20T07:05:03.686Z,14.20
2017-08-20T07:07:29.987Z,14.20
2017-08-20T07:09:56.159Z,14.30
2017-08-20T07:12:23.525Z,14.30
2017-08-20T07:14:50.729Z,14.40
2017-08-20T07:17:17.104Z,14.40
2017-08-20T07:19:43.401Z,14.40
2017-08-20T07:22:09.583Z,14.50
2017-08-20T07:24:36.515Z,14.60
2017-08-20T07:27:03.434Z,14.60
2017-08-20T07:29:29.594Z,14.60
2017-08-20T07:31:55.786Z,14.60
2017-08-20T07:34:21.967Z,14.70
2017-08-20T07:36:48.152Z,14.80
2017-08-20T07:39:14.755Z,14.80
2017-08-20T07:41:40.983Z,14.90
2017-08-20T07:44:07.171Z,14.90
2017-08-20T07:46:33.585Z,14.90
2017-08-20T07:48:59.763Z,15.00
2017-08-20T07:51:26.049Z,15.10
2017-08-20T07:53:52.564Z,15.20
2017-08-20T07:56:18.965Z,15.30
2017-08-20T07:58:45.647Z,15.50
2017-08-20T08:01:12.717Z,15.70
2017-08-20T08:03:40.320Z,15.60
2017-08-20T08:06:07.227Z,15.60
2017-08-20T08:08:33.446Z,15.60
2017-08-20T08:10:59.648Z,15.80
2017-08-20T08:13:27.153Z,15.80
2017-08-20T08:15:53.399Z,15.80
2017-08-20T08:18:19.631Z,15.90
2017-08-20T08:20:45.865Z,15.90
2017-08-20T08:23:12.089Z,16.10
2017-08-20T08:25:38.260Z,16.10
2017-08-20T08:28:04.451Z,16.10
2017-08-20T08:30:30.680Z,16.00
2017-08-20T08:32:56.916Z,16.00
2017-08-20T08:35:23.096Z,16.10
2017-08-20T08:37:49.379Z,16.20
2017-08-20T08:40:15.675Z,16.30
2017-08-20T08:42:42.060Z,16.50
2017-08-20T08:45:08.263Z,16.60
2017-08-20T08:47:34.415Z,16.60
2017-08-20T08:50:01.327Z,16.60
2017-08-20T08:52:27.519Z,16.60
2017-08-20T08:54:53.994Z,16.60
2017-08-20T08:57:20.187Z,16.70
2017-08-20T08:59:46.347Z,16.60
2017-08-20T09:02:12.554Z,16.70
2017-08-20T09:04:38.818Z,16.80
2017-08-20T09:07:05.047Z,17.00
2017-08-20T09:09:31.964Z,17.10
2017-08-20T09:11:58.170Z,17.00
2017-08-20T09:14:24.402Z,17.00
2017-08-20T09:16:51.572Z,17.10
2017-08-20T09:19:17.768Z,17.00
2017-08-20T09:21:43.959Z,17.20
2017-08-20T09:24:10.147Z,17.20
2017-08-20T09:26:36.364Z,17.30
2017-08-20T09:29:02.551Z,17.30
2017-08-20T09:31:28.875Z,17.30
2017-08-20T09:33:55.849Z,17.40
2017-08-20T09:36:22.159Z,17.40
2017-08-20T09:38:48.329Z,17.40
2017-08-20T09:41:14.523Z,17.50
2017-08-20T09:43:40.679Z,17.50
2017-08-20T09:46:06.888Z,17.70
2017-08-20T09:48:33.035Z,17.80
2017-08-20T09:50:59.231Z,18.00
2017-08-20T09:53:26.163Z,17.90
2017-08-20T09:55:52.324Z,17.90
2017-08-20T09:58:18.501Z,17.90
2017-08-20T10:00:44.762Z,17.90
2017-08-20T10:03:11.770Z,18.00
2017-08-20T10:05:37.980Z,18.10
2017-08-20T10:08:04.440Z,18.10
2017-08-20T10:10:30.590Z,18.10
2017-08-20T10:12:56.788Z,18.20
2017-08-20T10:15:23.010Z,18.30
2017-08-20T10:17:50.041Z,18.40
2017-08-20T10:20:16.222Z,18.40
2017-08-20T10:22:42.424Z,18.50
2017-08-20T10:25:08.637Z,18.60
2017-08-20T10:27:34.819Z,18.70
2017-08-20T10:30:01.103Z,18.90
2017-08-20T10:32:27.261Z,19.00
2017-08-20T10:34:53.577Z,19.20
2017-08-20T10:37:21.867Z,19.30
2017-08-20T10:39:48.095Z,19.50
2017-08-20T10:42:21.279Z,19.50
2017-08-20T10:44:47.687Z,19.50
2017-08-20T10:47:13.847Z,19.60
2017-08-20T10:49:40.049Z,19.80
2017-08-20T10:52:06.245Z,19.80
2017-08-20T10:54:33.808Z,19.90
2017-08-20T10:57:00.272Z,19.80
2017-08-20T10:59:27.394Z,19.80
2017-08-20T11:01:53.536Z,19.80
2017-08-20T11:04:19.742Z,19.90
2017-08-20T11:06:46.313Z,19.80
2017-08-20T11:09:12.713Z,19.90
2017-08-20T11:11:38.922Z,19.80
2017-08-20T11:14:05.127Z,19.70
2017-08-20T11:16:32.049Z,19.80
2017-08-20T11:18:58.208Z,19.80
2017-08-20T11:21:24.458Z,19.70
2017-08-20T11:23:50.639Z,19.60
2017-08-20T11:26:16.855Z,19.80
2017-08-20T11:28:44.073Z,20.00
2017-08-20T11:31:10.312Z,20.00
2017-08-20T11:33:36.474Z,20.00
2017-08-20T11:36:03.428Z,20.00
2017-08-20T11:38:29.595Z,20.00
2017-08-20T11:40:55.776Z,20.30
2017-08-20T11:43:21.953Z,20.50
2017-08-20T11:45:48.207Z,20.60
2017-08-20T11:48:15.199Z,20.50
2017-08-20T11:50:41.410Z,20.70
2017-08-20T11:53:07.550Z,20.60
2017-08-20T11:55:33.739Z,20.50
2017-08-20T11:57:59.911Z,20.90
2017-08-20T12:00:26.271Z,21.10
2017-08-20T12:02:52.458Z,21.20
2017-08-20T12:05:18.673Z,21.10
2017-08-20T12:07:48.005Z,21.40
2017-08-20T12:10:14.135Z,21.30
2017-08-20T12:12:40.350Z,21.30
2017-08-20T12:15:06.599Z,21.70
2017-08-20T12:17:32.879Z,21.90
2017-08-20T12:19:59.043Z,21.80
2017-08-20T12:22:25.225Z,22.20
2017-08-20T12:24:51.446Z,22.00
2017-08-20T12:27:18.248Z,22.00
2017-08-20T12:32:16.280Z,22.40
2017-08-20T12:34:43.254Z,22.50
2017-08-20T12:37:09.447Z,22.60
2017-08-20T12:39:35.599Z,22.30
2017-08-20T12:42:01.757Z,22.50
2017-08-20T12:44:28.105Z,22.70
2017-08-20T12:46:54.319Z,22.90
2017-08-20T12:49:21.310Z,22.90
2017-08-20T12:51:47.463Z,22.90
2017-08-20T12:54:13.727Z,22.90
2017-08-20T12:56:39.862Z,22.80
2017-08-20T12:59:06.023Z,22.90
2017-08-20T13:01:32.368Z,22.40
2017-08-20T13:03:58.605Z,22.10
2017-08-20T13:06:24.855Z,21.90
2017-08-20T13:08:51.751Z,21.80
2017-08-20T13:11:18.012Z,21.80
2017-08-20T13:13:44.224Z,21.70
2017-08-20T13:16:10.404Z,21.60
2017-08-20T13:18:38.889Z,22.10
2017-08-20T13:21:05.931Z,22.10
2017-08-20T13:23:32.086Z,21.60
2017-08-20T13:25:58.374Z,21.30
2017-08-20T13:28:25.416Z,21.70
2017-08-20T13:30:51.600Z,21.70
2017-08-20T13:33:18.564Z,21.80
2017-08-20T13:35:47.023Z,21.80
2017-08-20T13:38:13.194Z,21.90
2017-08-20T13:40:39.330Z,21.80
2017-08-20T13:43:05.566Z,21.70
2017-08-20T13:45:31.743Z,21.60
2017-08-20T13:47:58.907Z,21.50
2017-08-20T13:50:25.101Z,21.40
2017-08-20T13:52:51.326Z,21.50
2017-08-20T13:55:17.481Z,21.50
2017-08-20T13:57:43.664Z,21.50
2017-08-20T14:00:09.830Z,21.60
2017-08-20T14:02:36.036Z,21.60
2017-08-20T14:05:02.345Z,21.70
2017-08-20T14:07:29.259Z,21.60
2017-08-20T14:09:55.427Z,21.60
2017-08-20T14:12:21.582Z,21.50
2017-08-20T14:14:47.849Z,21.30
2017-08-20T14:17:14.078Z,21.30
2017-08-20T14:19:40.242Z,21.20
2017-08-20T14:22:06.379Z,21.10
2017-08-20T14:24:33.143Z,21.10
2017-08-20T14:26:59.321Z,21.10
2017-08-20T14:29:25.574Z,20.90
2017-08-20T14:31:51.884Z,20.70
2017-08-20T14:34:21.290Z,20.80
2017-08-20T14:36:47.708Z,20.70
2017-08-20T14:39:13.919Z,20.60
2017-08-20T14:41:40.216Z,20.60
2017-08-20T14:44:06.525Z,20.70
2017-08-20T14:46:32.719Z,20.70
2017-08-20T14:48:58.882Z,20.90
2017-08-20T14:51:25.040Z,20.90
2017-08-20T14:53:51.219Z,20.80
2017-08-20T14:56:17.577Z,20.90
2017-08-20T14:58:43.819Z,20.80
2017-08-20T15:01:09.999Z,20.70
2017-08-20T15:03:36.234Z,20.80
2017-08-20T15:06:02.418Z,20.70
2017-08-20T15:08:28.683Z,20.60
2017-08-20T15:10:54.967Z,20.60
2017-08-20T15:13:21.194Z,20.60
2017-08-20T15:15:47.374Z,20.60
2017-08-20T15:18:13.541Z,20.50
2017-08-20T15:20:40.419Z,20.40
2017-08-20T15:23:06.602Z,20.30
2017-08-20T15:25:33.533Z,20.40
2017-08-20T15:28:00.334Z,20.30
2017-08-20T15:30:27.575Z,20.30
2017-08-20T15:32:54.599Z,20.30
2017-08-20T15:35:21.574Z,20.30
2017-08-20T15:37:47.762Z,20.30
2017-08-20T15:40:14.189Z,20.30
2017-08-20T15:42:40.664Z,20.40
2017-08-20T15:45:06.875Z,20.20
2017-08-20T15:47:33.019Z,20.20
2017-08-20T15:49:59.260Z,20.20
2017-08-20T15:52:25.452Z,20.10
2017-08-20T15:54:52.422Z,20.00
2017-08-20T15:57:18.574Z,20.00
2017-08-20T15:59:44.727Z,20.00
2017-08-20T16:02:10.899Z,19.90
2017-08-20T16:04:37.107Z,19.90
2017-08-20T16:07:03.326Z,19.90
2017-08-20T16:09:29.545Z,19.80
2017-08-20T16:11:57.060Z,19.80
2017-08-20T16:14:23.290Z,19.80
2017-08-20T16:16:49.459Z,19.70
2017-08-20T16:19:16.699Z,19.80
2017-08-20T16:21:46.167Z,19.80
2017-08-20T16:24:12.671Z,19.80
2017-08-20T16:26:38.936Z,19.80
2017-08-20T16:29:05.208Z,19.80
2017-08-20T16:31:31.432Z,19.70
2017-08-20T16:33:57.717Z,19.70
2017-08-20T16:36:23.920Z,19.60
2017-08-20T16:38:50.210Z,19.60
2017-08-20T16:41:16.454Z,19.60
2017-08-20T16:43:42.725Z,19.60
2017-08-20T16:46:09.739Z,19.60
2017-08-20T16:48:35.892Z,19.60
2017-08-20T16:51:02.074Z,19.50
2017-08-20T16:53:28.304Z,19.50
2017-08-20T16:55:54.480Z,19.50
2017-08-20T16:58:20.665Z,19.40
2017-08-20T17:00:46.879Z,19.50
2017-08-20T17:03:13.069Z,19.40
2017-08-20T17:05:39.378Z,19.40
2017-08-20T17:08:05.640Z,19.30
2017-08-20T17:10:31.860Z,19.30
2017-08-20T17:12:58.308Z,19.20
2017-08-20T17:15:24.576Z,19.20
2017-08-20T17:17:50.759Z,19.20
2017-08-20T17:20:16.978Z,19.20
2017-08-20T17:22:43.139Z,19.20
2017-08-20T17:25:10.335Z,19.20
2017-08-20T17:27:36.531Z,19.20
2017-08-20T17:30:02.740Z,19.10
2017-08-20T17:32:28.943Z,19.10
2017-08-20T17:34:55.216Z,19.10
2017-08-20T17:37:21.501Z,19.00
2017-08-20T17:39:47.699Z,18.90
2017-08-20T17:42:13.881Z,18.80
2017-08-20T17:44:40.053Z,18.80
2017-08-20T17:47:06.985Z,18.70
2017-08-20T17:49:34.113Z,18.70
2017-08-20T17:52:00.326Z,18.60
2017-08-20T17:54:26.514Z,18.60
2017-08-20T17:56:52.953Z,18.60
2017-08-20T17:59:19.164Z,18.50
2017-08-20T18:01:45.426Z,18.50
2017-08-20T18:04:11.680Z,18.40
2017-08-20T18:06:38.932Z,18.30
2017-08-20T18:09:05.132Z,18.40
2017-08-20T18:11:31.330Z,18.30
2017-08-20T18:13:57.472Z,18.20
2017-08-20T18:16:23.720Z,18.30
2017-08-20T18:18:49.864Z,18.20
2017-08-20T18:21:16.140Z,18.20
2017-08-20T18:23:42.359Z,18.20
2017-08-20T18:26:08.505Z,18.10
2017-08-20T18:28:34.754Z,18.10
2017-08-20T18:31:00.973Z,18.10
2017-08-20T18:33:27.875Z,18.00
2017-08-20T18:35:54.165Z,17.90
2017-08-20T18:38:20.353Z,17.90
2017-08-20T18:40:46.525Z,17.90
2017-08-20T18:43:12.704Z,17.90
2017-08-20T18:45:38.866Z,17.80
2017-08-20T18:48:09.943Z,17.70
2017-08-20T18:50:36.087Z,17.70
2017-08-20T18:53:02.265Z,17.70
2017-08-20T18:55:28.403Z,17.60
2017-08-20T18:57:54.558Z,17.60
2017-08-20T19:00:20.801Z,17.50
2017-08-20T19:02:46.991Z,17.50
2017-08-20T19:05:13.328Z,17.40
2017-08-20T19:07:39.496Z,17.40
2017-08-20T19:10:05.661Z,17.30
2017-08-20T19:12:33.016Z,17.20
2017-08-20T19:14:59.156Z,17.00
2017-08-20T19:17:26.068Z,17.00
2017-08-20T19:19:52.190Z,17.00
2017-08-20T19:22:18.347Z,16.90
2017-08-20T19:24:44.533Z,16.90
2017-08-20T19:27:11.409Z,16.60
2017-08-20T19:29:37.544Z,16.60
2017-08-20T19:32:03.679Z,16.50
2017-08-20T19:34:30.556Z,16.50
2017-08-20T19:36:56.702Z,16.50
2017-08-20T19:39:22.829Z,16.40
2017-08-20T19:41:49.042Z,16.40
2017-08-20T19:44:15.183Z,16.30
2017-08-20T19:46:41.307Z,16.20
2017-08-20T19:49:07.451Z,15.90
2017-08-20T19:51:33.591Z,15.50
2017-08-20T19:54:00.487Z,15.70
2017-08-20T19:56:26.618Z,15.70
2017-08-20T19:58:52.807Z,15.50
2017-08-20T20:01:18.987Z,15.50
2017-08-20T20:03:45.148Z,15.50
2017-08-20T20:06:11.297Z,15.50
2017-08-20T20:08:37.442Z,15.30
2017-08-20T20:11:03.563Z,15.20
2017-08-20T20:13:29.714Z,15.10
2017-08-20T20:15:56.599Z,15.10
2017-08-20T20:18:22.745Z,15.10
2017-08-20T20:20:48.883Z,15.20
2017-08-20T20:23:15.031Z,15.10
2017-08-20T20:25:41.228Z,15.00
2017-08-20T20:28:07.460Z,14.90
2017-08-20T20:30:33.606Z,14.90
2017-08-20T20:33:00.495Z,14.90
2017-08-20T20:35:26.656Z,14.90
2017-08-20T20:37:53.602Z,14.70
2017-08-20T20:40:19.739Z,14.70
2017-08-20T20:42:45.895Z,14.70
2017-08-20T20:45:12.069Z,14.70
2017-08-20T20:47:38.222Z,14.50
2017-08-20T20:50:04.375Z,14.50
2017-08-20T20:52:30.583Z,14.50
2017-08-20T20:54:56.731Z,14.50
2017-08-20T20:57:22.867Z,14.50
2017-08-20T20:59:49.055Z,14.50
2017-08-20T21:02:15.395Z,14.40
2017-08-20T21:04:42.417Z,14.30
2017-08-20T21:07:09.670Z,14.30
2017-08-20T21:09:36.586Z,14.00
2017-08-20T21:12:02.721Z,14.00
2017-08-20T21:14:29.622Z,14.00
2017-08-20T21:16:55.754Z,13.90
2017-08-20T21:19:21.931Z,13.80
2017-08-20T21:21:48.103Z,13.70
2017-08-20T21:24:14.249Z,13.60
2017-08-20T21:26:40.383Z,13.60
2017-08-20T21:29:06.536Z,13.50
2017-08-20T21:31:33.400Z,13.40
2017-08-20T21:33:59.551Z,13.40
2017-08-20T21:36:26.431Z,13.50
2017-08-20T21:38:52.558Z,13.50
2017-08-20T21:41:18.699Z,13.30
2017-08-20T21:43:44.897Z,13.40
2017-08-20T21:46:11.051Z,13.40
2017-08-20T21:48:37.202Z,13.30
2017-08-20T21:51:03.378Z,13.20
2017-08-20T21:53:29.523Z,13.30
2017-08-20T21:55:55.688Z,13.20
2017-08-20T21:58:21.819Z,13.00
2017-08-20T22:00:47.984Z,13.10
2017-08-20T22:03:14.148Z,13.20
2017-08-20T22:05:40.300Z,13.20
2017-08-20T22:08:06.440Z,13.30
2017-08-20T22:10:32.610Z,13.30
2017-08-20T22:12:58.771Z,13.30
2017-08-20T22:15:24.938Z,13.30
2017-08-20T22:17:51.158Z,13.30
2017-08-20T22:20:17.408Z,13.30
2017-08-20T22:22:43.546Z,13.30
2017-08-20T22:25:09.734Z,13.30
2017-08-20T22:27:35.876Z,13.30
2017-08-20T22:30:02.118Z,13.30
2017-08-20T22:32:28.258Z,13.30
2017-08-20T22:34:54.435Z,13.30
2017-08-20T22:37:20.583Z,13.30
2017-08-20T22:39:46.916Z,13.30
2017-08-20T22:42:13.060Z,13.30
2017-08-20T22:44:39.955Z,13.30
2017-08-20T22:47:06.130Z,13.30
2017-08-20T22:49:32.285Z,13.20
2017-08-20T22:51:58.560Z,13.30
2017-08-20T22:54:24.727Z,13.20
2017-08-20T22:56:51.616Z,13.20
2017-08-20T22:59:17.735Z,13.10
2017-08-20T23:01:43.898Z,13.10
2017-08-20T23:04:10.086Z,13.00
2017-08-20T23:06:36.286Z,13.00
2017-08-20T23:09:02.508Z,13.10
2017-08-20T23:11:28.647Z,13.10
2017-08-20T23:13:54.807Z,13.10
2017-08-20T23:16:20.959Z,13.00
2017-08-20T23:18:47.967Z,13.10
2017-08-20T23:21:16.905Z,13.10
2017-08-20T23:23:43.097Z,13.10
2017-08-20T23:26:09.246Z,13.10
2017-08-20T23:28:39.421Z,13.10
2017-08-20T23:31:07.767Z,13.20
2017-08-20T23:33:33.903Z,13.10
2017-08-20T23:36:00.043Z,13.10
2017-08-20T23:38:26.176Z,13.10
2017-08-20T23:40:52.315Z,13.20
2017-08-20T23:43:19.198Z,13.10
2017-08-20T23:45:45.366Z,13.10
2017-08-20T23:48:11.600Z,13.10
2017-08-20T23:50:37.722Z,13.00
2017-08-20T23:53:03.867Z,13.00
2017-08-20T23:55:29.994Z,13.10
2017-08-20T23:57:56.882Z,13.00
